sensor_id;sensor_type;location;lat;lon;timestamp;pressure;altitude;pressure_sealevel;temperature;humidity
77583;BME280;66726;52.388;9.986;2023-04-03T00:02:27;102496.13;;;2.24;66.27
77583;BME280;66726;52.388;9.986;2023-04-03T00:04:59;102498.59;;;2.29;67.29
77583;BME280;66726;52.388;9.986;2023-04-03T00:07:31;102499.81;;;2.20;67.60
77583;BME280;66726;52.388;9.986;2023-04-03T00:10:05;102506.81;;;2.21;67.60
77583;BME280;66726;52.388;9.986;2023-04-03T00:12:37;102498.03;;;2.21;67.57
77583;BME280;66726;52.388;9.986;2023-04-03T00:15:11;102496.84;;;2.28;67.57
77583;BME280;66726;52.388;9.986;2023-04-03T00:17:43;102504.19;;;2.21;66.93
77583;BME280;66726;52.388;9.986;2023-04-03T00:20:15;102500.38;;;2.28;67.51
77583;BME280;66726;52.388;9.986;2023-04-03T00:22:46;102513.97;;;2.19;67.36
77583;BME280;66726;52.388;9.986;2023-04-03T00:25:20;102509.34;;;2.24;67.54
77583;BME280;66726;52.388;9.986;2023-04-03T00:27:53;102508.75;;;2.18;67.42
77583;BME280;66726;52.388;9.986;2023-04-03T00:30:26;102508.00;;;2.14;67.31
77583;BME280;66726;52.388;9.986;2023-04-03T00:32:59;102511.63;;;2.12;67.19
77583;BME280;66726;52.388;9.986;2023-04-03T00:35:31;102516.31;;;2.05;67.38
77583;BME280;66726;52.388;9.986;2023-04-03T00:38:03;102513.69;;;2.05;67.45
77583;BME280;66726;52.388;9.986;2023-04-03T00:40:42;102519.47;;;2.13;67.64
77583;BME280;66726;52.388;9.986;2023-04-03T00:43:18;102528.53;;;2.08;67.95
77583;BME280;66726;52.388;9.986;2023-04-03T00:45:52;102525.03;;;2.07;67.83
77583;BME280;66726;52.388;9.986;2023-04-03T00:48:29;102527.50;;;2.12;67.73
77583;BME280;66726;52.388;9.986;2023-04-03T00:51:04;102528.59;;;2.06;67.61
77583;BME280;66726;52.388;9.986;2023-04-03T00:53:43;102530.81;;;1.95;68.21
77583;BME280;66726;52.388;9.986;2023-04-03T00:56:19;102536.41;;;1.87;67.85
77583;BME280;66726;52.388;9.986;2023-04-03T00:58:57;102537.94;;;1.93;68.31
77583;BME280;66726;52.388;9.986;2023-04-03T01:01:31;102546.16;;;1.85;67.95
77583;BME280;66726;52.388;9.986;2023-04-03T01:04:05;102547.00;;;1.86;69.09
77583;BME280;66726;52.388;9.986;2023-04-03T01:06:39;102540.38;;;1.76;68.37
77583;BME280;66726;52.388;9.986;2023-04-03T01:09:10;102542.59;;;1.86;69.26
77583;BME280;66726;52.388;9.986;2023-04-03T01:11:43;102548.31;;;1.76;68.10
77583;BME280;66726;52.388;9.986;2023-04-03T01:14:15;102548.66;;;1.67;69.49
77583;BME280;66726;52.388;9.986;2023-04-03T01:16:55;102543.38;;;1.67;69.22
77583;BME280;66726;52.388;9.986;2023-04-03T01:19:27;102543.56;;;1.62;69.79
77583;BME280;66726;52.388;9.986;2023-04-03T01:22:17;102547.00;;;1.64;69.95
77583;BME280;66726;52.388;9.986;2023-04-03T01:24:51;102548.78;;;1.64;69.39
77583;BME280;66726;52.388;9.986;2023-04-03T01:27:24;102548.91;;;1.61;69.77
77583;BME280;66726;52.388;9.986;2023-04-03T01:29:56;102553.50;;;1.56;70.04
77583;BME280;66726;52.388;9.986;2023-04-03T01:32:29;102544.84;;;1.52;69.66
77583;BME280;66726;52.388;9.986;2023-04-03T01:35:01;102549.13;;;1.54;70.09
77583;BME280;66726;52.388;9.986;2023-04-03T01:37:33;102543.19;;;1.49;70.23
77583;BME280;66726;52.388;9.986;2023-04-03T01:40:06;102545.25;;;1.41;70.30
77583;BME280;66726;52.388;9.986;2023-04-03T01:42:38;102541.56;;;1.45;70.55
77583;BME280;66726;52.388;9.986;2023-04-03T01:45:11;102548.34;;;1.52;70.24
77583;BME280;66726;52.388;9.986;2023-04-03T01:47:44;102545.88;;;1.48;70.32
77583;BME280;66726;52.388;9.986;2023-04-03T01:50:16;102557.28;;;1.48;70.61
77583;BME280;66726;52.388;9.986;2023-04-03T01:52:48;102548.69;;;1.43;70.26
77583;BME280;66726;52.388;9.986;2023-04-03T01:55:20;102559.78;;;1.30;70.85
77583;BME280;66726;52.388;9.986;2023-04-03T01:57:51;102555.91;;;1.38;70.87
77583;BME280;66726;52.388;9.986;2023-04-03T02:00:23;102551.00;;;1.29;71.16
77583;BME280;66726;52.388;9.986;2023-04-03T02:02:56;102555.63;;;1.23;71.25
77583;BME280;66726;52.388;9.986;2023-04-03T02:05:28;102562.91;;;1.16;71.46
77583;BME280;66726;52.388;9.986;2023-04-03T02:08:00;102561.06;;;1.18;71.48
77583;BME280;66726;52.388;9.986;2023-04-03T02:10:32;102554.56;;;1.27;70.99
77583;BME280;66726;52.388;9.986;2023-04-03T02:13:04;102556.66;;;1.19;70.75
77583;BME280;66726;52.388;9.986;2023-04-03T02:15:39;102559.41;;;1.16;71.01
77583;BME280;66726;52.388;9.986;2023-04-03T02:18:12;102561.31;;;1.12;70.93
77583;BME280;66726;52.388;9.986;2023-04-03T02:20:44;102554.69;;;1.00;71.53
77583;BME280;66726;52.388;9.986;2023-04-03T02:23:16;102555.44;;;1.04;71.71
77583;BME280;66726;52.388;9.986;2023-04-03T02:25:47;102554.03;;;0.94;71.84
77583;BME280;66726;52.388;9.986;2023-04-03T02:28:20;102558.81;;;1.08;71.63
77583;BME280;66726;52.388;9.986;2023-04-03T02:30:52;102560.59;;;1.07;71.69
77583;BME280;66726;52.388;9.986;2023-04-03T02:33:25;102562.97;;;0.90;72.15
77583;BME280;66726;52.388;9.986;2023-04-03T02:35:58;102552.53;;;0.87;72.82
77583;BME280;66726;52.388;9.986;2023-04-03T02:38:31;102562.06;;;0.91;72.56
77583;BME280;66726;52.388;9.986;2023-04-03T02:41:05;102562.19;;;0.88;71.65
77583;BME280;66726;52.388;9.986;2023-04-03T02:43:37;102569.75;;;0.97;71.83
77583;BME280;66726;52.388;9.986;2023-04-03T02:46:09;102565.19;;;0.77;71.28
77583;BME280;66726;52.388;9.986;2023-04-03T02:48:43;102565.69;;;0.88;72.52
77583;BME280;66726;52.388;9.986;2023-04-03T02:51:14;102566.16;;;0.75;72.55
77583;BME280;66726;52.388;9.986;2023-04-03T02:53:46;102568.69;;;0.78;72.32
77583;BME280;66726;52.388;9.986;2023-04-03T02:56:18;102577.06;;;0.64;73.48
77583;BME280;66726;52.388;9.986;2023-04-03T02:58:54;102570.06;;;0.63;73.59
77583;BME280;66726;52.388;9.986;2023-04-03T03:01:29;102567.41;;;0.65;72.87
77583;BME280;66726;52.388;9.986;2023-04-03T03:04:05;102565.88;;;0.58;73.18
77583;BME280;66726;52.388;9.986;2023-04-03T03:06:37;102578.13;;;0.59;73.32
77583;BME280;66726;52.388;9.986;2023-04-03T03:09:09;102574.47;;;0.63;73.92
77583;BME280;66726;52.388;9.986;2023-04-03T03:11:40;102579.19;;;0.53;72.68
77583;BME280;66726;52.388;9.986;2023-04-03T03:14:12;102573.97;;;0.51;73.68
77583;BME280;66726;52.388;9.986;2023-04-03T03:16:44;102580.28;;;0.47;74.03
77583;BME280;66726;52.388;9.986;2023-04-03T03:19:17;102577.28;;;0.58;73.71
77583;BME280;66726;52.388;9.986;2023-04-03T03:21:49;102572.28;;;0.50;73.23
77583;BME280;66726;52.388;9.986;2023-04-03T03:24:21;102578.44;;;0.49;73.47
77583;BME280;66726;52.388;9.986;2023-04-03T03:26:53;102581.88;;;0.51;74.08
77583;BME280;66726;52.388;9.986;2023-04-03T03:29:24;102584.78;;;0.44;73.47
77583;BME280;66726;52.388;9.986;2023-04-03T03:31:56;102585.94;;;0.35;73.45
77583;BME280;66726;52.388;9.986;2023-04-03T03:34:29;102584.91;;;0.41;73.00
77583;BME280;66726;52.388;9.986;2023-04-03T03:37:01;102588.56;;;0.35;74.59
77583;BME280;66726;52.388;9.986;2023-04-03T03:39:33;102592.63;;;0.45;74.48
77583;BME280;66726;52.388;9.986;2023-04-03T03:42:05;102592.53;;;0.48;74.26
77583;BME280;66726;52.388;9.986;2023-04-03T03:44:37;102589.63;;;0.56;73.90
77583;BME280;66726;52.388;9.986;2023-04-03T03:47:09;102595.06;;;0.51;74.03
77583;BME280;66726;52.388;9.986;2023-04-03T03:49:42;102592.34;;;0.55;73.89
77583;BME280;66726;52.388;9.986;2023-04-03T03:52:14;102594.59;;;0.39;73.53
77583;BME280;66726;52.388;9.986;2023-04-03T03:54:46;102593.81;;;0.37;73.61
77583;BME280;66726;52.388;9.986;2023-04-03T03:57:20;102599.84;;;0.40;73.47
77583;BME280;66726;52.388;9.986;2023-04-03T03:59:51;102596.66;;;0.31;74.56
77583;BME280;66726;52.388;9.986;2023-04-03T04:02:23;102597.75;;;0.24;73.73
77583;BME280;66726;52.388;9.986;2023-04-03T04:04:56;102597.78;;;0.22;74.30
77583;BME280;66726;52.388;9.986;2023-04-03T04:07:28;102599.78;;;0.14;73.89
77583;BME280;66726;52.388;9.986;2023-04-03T04:10:00;102600.88;;;0.09;73.83
77583;BME280;66726;52.388;9.986;2023-04-03T04:12:32;102602.63;;;0.08;75.33
77583;BME280;66726;52.388;9.986;2023-04-03T04:15:06;102602.50;;;0.13;75.63
77583;BME280;66726;52.388;9.986;2023-04-03T04:17:38;102597.06;;;0.17;75.04
77583;BME280;66726;52.388;9.986;2023-04-03T04:20:11;102594.63;;;0.11;74.62
77583;BME280;66726;52.388;9.986;2023-04-03T04:22:43;102599.03;;;0.11;75.44
77583;BME280;66726;52.388;9.986;2023-04-03T04:25:15;102590.72;;;-0.04;75.42
77583;BME280;66726;52.388;9.986;2023-04-03T04:27:47;102589.03;;;-0.06;76.05
77583;BME280;66726;52.388;9.986;2023-04-03T04:30:18;102597.84;;;-0.07;76.10
77583;BME280;66726;52.388;9.986;2023-04-03T04:32:50;102601.00;;;0.04;75.97
77583;BME280;66726;52.388;9.986;2023-04-03T04:35:23;102601.31;;;-0.07;75.11
77583;BME280;66726;52.388;9.986;2023-04-03T04:37:55;102605.81;;;-0.10;75.00
77583;BME280;66726;52.388;9.986;2023-04-03T04:40:28;102610.16;;;-0.08;76.36
77583;BME280;66726;52.388;9.986;2023-04-03T04:43:00;102610.38;;;-0.15;75.21
77583;BME280;66726;52.388;9.986;2023-04-03T04:45:32;102606.56;;;-0.05;76.13
77583;BME280;66726;52.388;9.986;2023-04-03T04:48:04;102606.56;;;-0.05;75.63
77583;BME280;66726;52.388;9.986;2023-04-03T04:50:37;102604.56;;;0.03;75.44
77583;BME280;66726;52.388;9.986;2023-04-03T04:53:09;102609.84;;;0.03;76.07
77583;BME280;66726;52.388;9.986;2023-04-03T04:55:41;102613.47;;;-0.01;76.11
77583;BME280;66726;52.388;9.986;2023-04-03T04:58:13;102607.44;;;-0.05;75.73
77583;BME280;66726;52.388;9.986;2023-04-03T05:00:46;102602.06;;;-0.02;75.91
77583;BME280;66726;52.388;9.986;2023-04-03T05:03:18;102616.91;;;0.01;75.42
77583;BME280;66726;52.388;9.986;2023-04-03T05:05:51;102618.44;;;0.08;75.67
77583;BME280;66726;52.388;9.986;2023-04-03T05:08:23;102627.16;;;0.10;75.69
77583;BME280;66726;52.388;9.986;2023-04-03T05:10:55;102629.16;;;0.02;75.54
77583;BME280;66726;52.388;9.986;2023-04-03T05:13:26;102628.50;;;-0.05;76.05
77583;BME280;66726;52.388;9.986;2023-04-03T05:15:58;102624.00;;;-0.01;75.48
77583;BME280;66726;52.388;9.986;2023-04-03T05:18:30;102636.41;;;-0.06;75.90
77583;BME280;66726;52.388;9.986;2023-04-03T05:21:04;102632.16;;;-0.10;76.48
77583;BME280;66726;52.388;9.986;2023-04-03T05:23:35;102626.19;;;-0.15;76.63
77583;BME280;66726;52.388;9.986;2023-04-03T05:26:07;102634.72;;;-0.07;76.19
77583;BME280;66726;52.388;9.986;2023-04-03T05:28:39;102638.28;;;-0.10;77.09
77583;BME280;66726;52.388;9.986;2023-04-03T05:31:12;102635.97;;;-0.20;76.55
77583;BME280;66726;52.388;9.986;2023-04-03T05:33:44;102644.78;;;-0.21;77.35
77583;BME280;66726;52.388;9.986;2023-04-03T05:36:17;102648.97;;;-0.14;76.55
77583;BME280;66726;52.388;9.986;2023-04-03T05:38:50;102659.50;;;-0.14;76.88
77583;BME280;66726;52.388;9.986;2023-04-03T05:41:21;102657.97;;;-0.21;76.63
77583;BME280;66726;52.388;9.986;2023-04-03T05:43:53;102662.47;;;-0.26;77.85
77583;BME280;66726;52.388;9.986;2023-04-03T05:46:25;102665.78;;;-0.20;77.67
77583;BME280;66726;52.388;9.986;2023-04-03T05:48:57;102661.47;;;-0.22;77.30
77583;BME280;66726;52.388;9.986;2023-04-03T05:51:36;102668.47;;;-0.21;77.74
77583;BME280;66726;52.388;9.986;2023-04-03T05:54:13;102672.81;;;-0.20;77.32
77583;BME280;66726;52.388;9.986;2023-04-03T05:56:47;102673.84;;;-0.24;77.79
77583;BME280;66726;52.388;9.986;2023-04-03T05:59:20;102681.00;;;-0.29;78.11
77583;BME280;66726;52.388;9.986;2023-04-03T06:01:53;102682.66;;;-0.27;79.00
77583;BME280;66726;52.388;9.986;2023-04-03T06:04:24;102683.72;;;-0.32;79.57
77583;BME280;66726;52.388;9.986;2023-04-03T06:06:59;102682.91;;;-0.34;79.23
77583;BME280;66726;52.388;9.986;2023-04-03T06:09:31;102688.09;;;-0.31;79.70
77583;BME280;66726;52.388;9.986;2023-04-03T06:12:03;102691.44;;;-0.26;78.84
77583;BME280;66726;52.388;9.986;2023-04-03T06:14:35;102693.06;;;-0.22;78.71
77583;BME280;66726;52.388;9.986;2023-04-03T06:17:07;102697.38;;;-0.20;78.56
77583;BME280;66726;52.388;9.986;2023-04-03T06:19:41;102701.56;;;-0.13;78.51
77583;BME280;66726;52.388;9.986;2023-04-03T06:22:15;102696.34;;;-0.14;79.19
77583;BME280;66726;52.388;9.986;2023-04-03T06:24:49;102700.56;;;-0.09;79.30
77583;BME280;66726;52.388;9.986;2023-04-03T06:27:21;102701.47;;;-0.10;78.95
77583;BME280;66726;52.388;9.986;2023-04-03T06:29:54;102697.81;;;-0.04;78.84
77583;BME280;66726;52.388;9.986;2023-04-03T06:32:26;102706.41;;;0.01;78.97
77583;BME280;66726;52.388;9.986;2023-04-03T06:34:58;102700.16;;;0.05;78.67
77583;BME280;66726;52.388;9.986;2023-04-03T06:37:31;102697.53;;;0.05;78.29
77583;BME280;66726;52.388;9.986;2023-04-03T06:40:03;102698.41;;;0.06;78.58
77583;BME280;66726;52.388;9.986;2023-04-03T06:42:35;102700.81;;;0.13;78.34
77583;BME280;66726;52.388;9.986;2023-04-03T06:45:07;102701.41;;;0.21;78.72
77583;BME280;66726;52.388;9.986;2023-04-03T06:47:41;102705.69;;;0.25;78.58
77583;BME280;66726;52.388;9.986;2023-04-03T06:50:15;102709.06;;;0.30;78.64
77583;BME280;66726;52.388;9.986;2023-04-03T06:52:49;102712.38;;;0.37;79.07
77583;BME280;66726;52.388;9.986;2023-04-03T06:55:21;102721.03;;;0.40;78.70
77583;BME280;66726;52.388;9.986;2023-04-03T06:57:53;102719.09;;;0.45;78.57
77583;BME280;66726;52.388;9.986;2023-04-03T07:00:26;102719.84;;;0.50;78.01
77583;BME280;66726;52.388;9.986;2023-04-03T07:02:58;102724.91;;;0.57;78.08
77583;BME280;66726;52.388;9.986;2023-04-03T07:05:31;102729.09;;;0.64;77.32
77583;BME280;66726;52.388;9.986;2023-04-03T07:08:04;102728.88;;;0.70;77.32
77583;BME280;66726;52.388;9.986;2023-04-03T07:10:37;102729.66;;;0.73;76.48
77583;BME280;66726;52.388;9.986;2023-04-03T07:13:09;102733.84;;;0.79;76.66
77583;BME280;66726;52.388;9.986;2023-04-03T07:15:41;102731.03;;;0.85;76.84
77583;BME280;66726;52.388;9.986;2023-04-03T07:18:15;102737.75;;;0.95;76.52
77583;BME280;66726;52.388;9.986;2023-04-03T07:20:47;102736.53;;;1.05;76.04
77583;BME280;66726;52.388;9.986;2023-04-03T07:23:21;102746.97;;;1.08;75.02
77583;BME280;66726;52.388;9.986;2023-04-03T07:25:54;102744.22;;;1.11;75.31
77583;BME280;66726;52.388;9.986;2023-04-03T07:28:26;102743.91;;;1.20;75.29
77583;BME280;66726;52.388;9.986;2023-04-03T07:31:06;102746.00;;;1.37;73.54
77583;BME280;66726;52.388;9.986;2023-04-03T07:33:40;102748.44;;;1.41;73.69
77583;BME280;66726;52.388;9.986;2023-04-03T07:36:17;102753.63;;;1.44;74.36
77583;BME280;66726;52.388;9.986;2023-04-03T07:38:50;102749.69;;;1.56;73.21
77583;BME280;66726;52.388;9.986;2023-04-03T07:41:23;102757.09;;;1.71;72.51
77583;BME280;66726;52.388;9.986;2023-04-03T07:43:55;102754.16;;;1.79;73.20
77583;BME280;66726;52.388;9.986;2023-04-03T07:46:27;102746.03;;;1.85;72.02
77583;BME280;66726;52.388;9.986;2023-04-03T07:48:59;102754.22;;;2.02;69.59
77583;BME280;66726;52.388;9.986;2023-04-03T07:51:30;102742.56;;;2.06;70.69
77583;BME280;66726;52.388;9.986;2023-04-03T07:54:03;102755.47;;;2.15;70.58
77583;BME280;66726;52.388;9.986;2023-04-03T07:56:35;102753.84;;;2.34;70.04
77583;BME280;66726;52.388;9.986;2023-04-03T07:59:09;102752.69;;;2.41;69.52
77583;BME280;66726;52.388;9.986;2023-04-03T08:01:43;102746.34;;;2.45;69.55
77583;BME280;66726;52.388;9.986;2023-04-03T08:04:15;102758.41;;;2.52;69.25
77583;BME280;66726;52.388;9.986;2023-04-03T08:06:47;102758.13;;;2.60;67.96
77583;BME280;66726;52.388;9.986;2023-04-03T08:09:20;102759.78;;;2.63;68.44
77583;BME280;66726;52.388;9.986;2023-04-03T08:11:52;102751.72;;;2.66;68.33
77583;BME280;66726;52.388;9.986;2023-04-03T08:14:26;102756.75;;;2.72;67.55
77583;BME280;66726;52.388;9.986;2023-04-03T08:16:58;102754.81;;;2.77;67.09
77583;BME280;66726;52.388;9.986;2023-04-03T08:19:30;102755.47;;;2.82;68.63
77583;BME280;66726;52.388;9.986;2023-04-03T08:22:02;102752.34;;;2.94;67.83
77583;BME280;66726;52.388;9.986;2023-04-03T08:24:36;102758.72;;;3.10;68.59
77583;BME280;66726;52.388;9.986;2023-04-03T08:27:13;102750.00;;;3.08;67.77
77583;BME280;66726;52.388;9.986;2023-04-03T08:29:45;102752.44;;;3.13;67.19
77583;BME280;66726;52.388;9.986;2023-04-03T08:32:17;102758.31;;;3.19;65.47
77583;BME280;66726;52.388;9.986;2023-04-03T08:34:49;102752.91;;;3.22;67.99
77583;BME280;66726;52.388;9.986;2023-04-03T08:37:23;102756.09;;;3.30;65.50
77583;BME280;66726;52.388;9.986;2023-04-03T08:39:57;102757.69;;;3.34;64.45
77583;BME280;66726;52.388;9.986;2023-04-03T08:42:41;102746.72;;;3.43;66.14
77583;BME280;66726;52.388;9.986;2023-04-03T08:45:25;102751.34;;;3.58;64.35
77583;BME280;66726;52.388;9.986;2023-04-03T08:48:06;102748.97;;;3.73;65.01
77583;BME280;66726;52.388;9.986;2023-04-03T08:50:44;102740.59;;;3.82;63.79
77583;BME280;66726;52.388;9.986;2023-04-03T08:53:21;102734.38;;;3.83;64.69
77583;BME280;66726;52.388;9.986;2023-04-03T08:55:57;102739.84;;;3.98;62.84
77583;BME280;66726;52.388;9.986;2023-04-03T08:58:33;102729.19;;;4.00;60.50
77583;BME280;66726;52.388;9.986;2023-04-03T09:01:17;102730.72;;;4.24;58.95
77583;BME280;66726;52.388;9.986;2023-04-03T09:03:50;102737.00;;;4.22;61.38
77583;BME280;66726;52.388;9.986;2023-04-03T09:06:25;102734.13;;;4.26;64.26
77583;BME280;66726;52.388;9.986;2023-04-03T09:09:12;102742.16;;;4.43;59.55
77583;BME280;66726;52.388;9.986;2023-04-03T09:11:58;102733.84;;;4.51;58.77
77583;BME280;66726;52.388;9.986;2023-04-03T09:14:41;102738.19;;;4.71;56.21
77583;BME280;66726;52.388;9.986;2023-04-03T09:17:24;102735.09;;;4.80;55.78
77583;BME280;66726;52.388;9.986;2023-04-03T09:20:11;102739.66;;;4.95;56.10
77583;BME280;66726;52.388;9.986;2023-04-03T09:22:50;102731.16;;;5.05;55.00
77583;BME280;66726;52.388;9.986;2023-04-03T09:25:27;102730.25;;;5.24;57.54
77583;BME280;66726;52.388;9.986;2023-04-03T09:28:03;102735.41;;;5.27;55.66
77583;BME280;66726;52.388;9.986;2023-04-03T09:30:40;102732.19;;;5.37;54.34
77583;BME280;66726;52.388;9.986;2023-04-03T09:33:13;102721.69;;;5.34;53.89
77583;BME280;66726;52.388;9.986;2023-04-03T09:35:45;102720.63;;;5.38;55.50
77583;BME280;66726;52.388;9.986;2023-04-03T09:38:21;102720.00;;;5.50;53.37
77583;BME280;66726;52.388;9.986;2023-04-03T09:41:06;102718.06;;;5.70;52.30
77583;BME280;66726;52.388;9.986;2023-04-03T09:43:53;102720.94;;;5.82;52.86
77583;BME280;66726;52.388;9.986;2023-04-03T09:46:34;102713.69;;;5.86;53.18
77583;BME280;66726;52.388;9.986;2023-04-03T09:49:12;102708.84;;;5.77;53.86
77583;BME280;66726;52.388;9.986;2023-04-03T09:51:44;102714.25;;;5.75;51.79
77583;BME280;66726;52.388;9.986;2023-04-03T09:54:33;102712.88;;;5.51;49.96
77583;BME280;66726;52.388;9.986;2023-04-03T09:57:15;102710.94;;;5.37;51.77
77583;BME280;66726;52.388;9.986;2023-04-03T10:00:00;102715.09;;;5.26;51.13
77583;BME280;66726;52.388;9.986;2023-04-03T10:02:43;102709.22;;;5.36;50.44
77583;BME280;66726;52.388;9.986;2023-04-03T10:05:34;102699.84;;;5.46;48.98
77583;BME280;66726;52.388;9.986;2023-04-03T10:08:26;102706.41;;;5.39;48.51
77583;BME280;66726;52.388;9.986;2023-04-03T10:11:11;102694.66;;;5.60;50.18
77583;BME280;66726;52.388;9.986;2023-04-03T10:13:59;102690.31;;;5.92;47.92
77583;BME280;66726;52.388;9.986;2023-04-03T10:16:38;102685.78;;;6.10;50.61
77583;BME280;66726;52.388;9.986;2023-04-03T10:19:32;102690.09;;;6.28;49.36
77583;BME280;66726;52.388;9.986;2023-04-03T10:25:04;102688.72;;;6.52;49.25
77583;BME280;66726;52.388;9.986;2023-04-03T10:27:48;102679.53;;;6.42;50.89
77583;BME280;66726;52.388;9.986;2023-04-03T10:30:34;102678.94;;;6.06;47.28
77583;BME280;66726;52.388;9.986;2023-04-03T10:33:22;102682.69;;;6.02;48.76
77583;BME280;66726;52.388;9.986;2023-04-03T10:36:12;102674.09;;;5.97;51.30
77583;BME280;66726;52.388;9.986;2023-04-03T10:39:00;102676.78;;;5.80;47.68
77583;BME280;66726;52.388;9.986;2023-04-03T10:41:47;102681.34;;;5.78;48.28
77583;BME280;66726;52.388;9.986;2023-04-03T10:44:40;102680.13;;;5.68;47.70
77583;BME280;66726;52.388;9.986;2023-04-03T10:47:24;102679.66;;;5.59;49.02
77583;BME280;66726;52.388;9.986;2023-04-03T10:50:11;102671.44;;;5.64;48.20
77583;BME280;66726;52.388;9.986;2023-04-03T10:52:55;102670.91;;;5.57;48.16
77583;BME280;66726;52.388;9.986;2023-04-03T10:55:39;102677.63;;;5.65;48.22
77583;BME280;66726;52.388;9.986;2023-04-03T10:58:24;102672.13;;;5.68;49.23
77583;BME280;66726;52.388;9.986;2023-04-03T11:01:02;102671.19;;;5.69;48.68
77583;BME280;66726;52.388;9.986;2023-04-03T11:03:42;102666.09;;;5.81;49.14
77583;BME280;66726;52.388;9.986;2023-04-03T11:06:21;102658.81;;;5.85;49.12
77583;BME280;66726;52.388;9.986;2023-04-03T11:09:00;102662.25;;;5.87;47.43
77583;BME280;66726;52.388;9.986;2023-04-03T11:11:38;102657.88;;;5.86;47.31
77583;BME280;66726;52.388;9.986;2023-04-03T11:14:21;102649.97;;;5.84;47.05
77583;BME280;66726;52.388;9.986;2023-04-03T11:17:09;102654.72;;;6.10;50.02
77583;BME280;66726;52.388;9.986;2023-04-03T11:19:47;102650.97;;;6.46;45.86
77583;BME280;66726;52.388;9.986;2023-04-03T11:22:30;102640.34;;;6.76;45.95
77583;BME280;66726;52.388;9.986;2023-04-03T11:25:18;102630.34;;;7.09;45.42
77583;BME280;66726;52.388;9.986;2023-04-03T11:27:57;102630.78;;;7.31;47.18
77583;BME280;66726;52.388;9.986;2023-04-03T11:30:37;102616.75;;;7.13;45.40
77583;BME280;66726;52.388;9.986;2023-04-03T11:33:37;102633.56;;;7.00;45.33
77583;BME280;66726;52.388;9.986;2023-04-03T11:36:22;102619.66;;;6.65;45.07
77583;BME280;66726;52.388;9.986;2023-04-03T11:39:10;102622.44;;;6.63;47.11
77583;BME280;66726;52.388;9.986;2023-04-03T11:41:49;102635.13;;;6.74;51.16
77583;BME280;66726;52.388;9.986;2023-04-03T11:44:37;102631.97;;;6.82;48.97
77583;BME280;66726;52.388;9.986;2023-04-03T11:47:10;102624.63;;;7.01;49.12
77583;BME280;66726;52.388;9.986;2023-04-03T11:50:04;102617.44;;;7.17;46.95
77583;BME280;66726;52.388;9.986;2023-04-03T11:53:02;102620.13;;;7.31;45.75
77583;BME280;66726;52.388;9.986;2023-04-03T11:55:58;102621.44;;;7.24;44.50
77583;BME280;66726;52.388;9.986;2023-04-03T11:58:30;102618.03;;;7.22;48.36
77583;BME280;66726;52.388;9.986;2023-04-03T12:01:10;102623.53;;;7.19;48.58
77583;BME280;66726;52.388;9.986;2023-04-03T12:04:12;102615.72;;;7.16;50.28
77583;BME280;66726;52.388;9.986;2023-04-03T12:07:16;102614.38;;;6.95;44.49
77583;BME280;66726;52.388;9.986;2023-04-03T12:13:14;102613.03;;;7.16;46.58
77583;BME280;66726;52.388;9.986;2023-04-03T12:15:54;102606.81;;;7.31;43.39
77583;BME280;66726;52.388;9.986;2023-04-03T12:18:57;102608.31;;;7.78;45.05
77583;BME280;66726;52.388;9.986;2023-04-03T12:22:13;102593.78;;;8.10;44.85
77583;BME280;66726;52.388;9.986;2023-04-03T12:24:48;102597.97;;;8.28;42.13
77583;BME280;66726;52.388;9.986;2023-04-03T12:27:40;102599.84;;;8.12;42.16
77583;BME280;66726;52.388;9.986;2023-04-03T12:30:31;102591.91;;;7.98;41.26
77583;BME280;66726;52.388;9.986;2023-04-03T12:33:22;102587.72;;;7.94;42.15
77583;BME280;66726;52.388;9.986;2023-04-03T12:36:05;102591.66;;;7.74;42.72
77583;BME280;66726;52.388;9.986;2023-04-03T12:39:02;102596.91;;;7.61;40.88
77583;BME280;66726;52.388;9.986;2023-04-03T12:41:45;102584.88;;;7.83;40.53
77583;BME280;66726;52.388;9.986;2023-04-03T12:44:35;102583.72;;;8.01;43.26
77583;BME280;66726;52.388;9.986;2023-04-03T12:47:23;102571.06;;;8.31;43.33
77583;BME280;66726;52.388;9.986;2023-04-03T12:49:57;102579.63;;;7.95;39.98
77583;BME280;66726;52.388;9.986;2023-04-03T12:52:37;102572.59;;;7.94;42.51
77583;BME280;66726;52.388;9.986;2023-04-03T12:55:17;102571.75;;;7.80;43.28
77583;BME280;66726;52.388;9.986;2023-04-03T12:57:50;102577.16;;;7.78;47.21
77583;BME280;66726;52.388;9.986;2023-04-03T13:03:25;102564.31;;;7.71;43.62
77583;BME280;66726;52.388;9.986;2023-04-03T13:06:01;102567.84;;;7.71;43.44
77583;BME280;66726;52.388;9.986;2023-04-03T13:08:34;102565.56;;;7.65;44.66
77583;BME280;66726;52.388;9.986;2023-04-03T13:11:11;102564.75;;;7.36;41.08
77583;BME280;66726;52.388;9.986;2023-04-03T13:13:54;102560.53;;;7.60;41.08
77583;BME280;66726;52.388;9.986;2023-04-03T13:16:26;102555.69;;;8.08;41.44
77583;BME280;66726;52.388;9.986;2023-04-03T13:18:59;102555.81;;;8.33;39.59
77583;BME280;66726;52.388;9.986;2023-04-03T13:21:36;102549.31;;;8.77;42.72
77583;BME280;66726;52.388;9.986;2023-04-03T13:24:10;102545.34;;;8.95;39.72
77583;BME280;66726;52.388;9.986;2023-04-03T13:26:46;102546.19;;;9.08;38.26
77583;BME280;66726;52.388;9.986;2023-04-03T13:29:28;102533.06;;;9.05;38.00
77583;BME280;66726;52.388;9.986;2023-04-03T13:32:05;102531.66;;;9.37;40.66
77583;BME280;66726;52.388;9.986;2023-04-03T13:34:43;102525.84;;;9.56;37.60
77583;BME280;66726;52.388;9.986;2023-04-03T13:37:24;102529.69;;;9.64;37.84
77583;BME280;66726;52.388;9.986;2023-04-03T13:40:12;102535.16;;;9.87;39.29
77583;BME280;66726;52.388;9.986;2023-04-03T13:42:45;102526.47;;;9.59;40.11
77583;BME280;66726;52.388;9.986;2023-04-03T13:45:26;102530.94;;;9.72;38.48
77583;BME280;66726;52.388;9.986;2023-04-03T13:48:17;102517.97;;;9.78;38.80
77583;BME280;66726;52.388;9.986;2023-04-03T13:50:57;102519.34;;;9.47;39.38
77583;BME280;66726;52.388;9.986;2023-04-03T13:53:32;102514.34;;;9.30;38.91
77583;BME280;66726;52.388;9.986;2023-04-03T13:56:16;102518.66;;;9.07;39.65
77583;BME280;66726;52.388;9.986;2023-04-03T13:59:02;102509.34;;;8.75;39.52